Time;durP1;ratioP1;P1;durP2;ratioP2;P2;SDS_P1;SDS_P2;PMS_P1;PMS_P2;Temp;Humidity;BMP_temperature;BMP_pressure;BME280_temperature;BME280_humidity;BME280_pressure;Samples;Min_cycle;Max_cycle;Signal;HPM_P1;HPM_P2
2021/12/29 00:01:13;;;;;;;5.07;3.97;;;;;;;;;;5114268;28;20285;-87
2021/12/29 00:03:41;;;;;;;5.60;4.03;;;;;;;;;;5113402;28;21042;-86
2021/12/29 00:06:08;;;;;;;4.30;3.70;;;;;;;;;;5113745;27;20193;-86
2021/12/29 00:08:36;;;;;;;6.10;4.07;;;;;;;;;;5113835;28;20225;-87
2021/12/29 00:11:03;;;;;;;5.93;4.20;;;;;;;;;;5113816;28;20225;-86
2021/12/29 00:13:30;;;;;;;6.63;4.80;;;;;;;;;;5114164;28;20566;-86
2021/12/29 00:15:58;;;;;;;6.17;4.70;;;;;;;;;;5117516;28;20881;-86
2021/12/29 00:18:26;;;;;;;7.77;4.97;;;;;;;;;;5118319;28;20305;-87
2021/12/29 00:20:55;;;;;;;7.03;5.27;;;;;;;;;;5113921;27;20289;-87
2021/12/29 00:23:22;;;;;;;7.90;5.20;;;;;;;;;;5112952;28;20251;-87
2021/12/29 00:25:50;;;;;;;8.30;5.40;;;;;;;;;;5114382;28;20288;-87
2021/12/29 00:28:17;;;;;;;7.20;5.03;;;;;;;;;;5109798;28;20709;-87
2021/12/29 00:30:44;;;;;;;9.10;5.80;;;;;;;;;;5113950;28;20236;-86
2021/12/29 00:33:12;;;;;;;10.93;6.10;;;;;;;;;;5112574;28;20225;-86
2021/12/29 00:35:41;;;;;;;8.67;5.53;;;;;;;;;;5113282;28;20237;-85
2021/12/29 00:38:10;;;;;;;9.27;5.67;;;;;;;;;;5113217;28;20769;-86
2021/12/29 00:40:38;;;;;;;9.60;5.80;;;;;;;;;;5113523;28;20280;-86
2021/12/29 00:43:06;;;;;;;11.93;6.27;;;;;;;;;;5113273;28;20661;-87
2021/12/29 00:45:35;;;;;;;11.17;6.53;;;;;;;;;;5111978;28;20209;-87
2021/12/29 00:48:03;;;;;;;10.50;6.50;;;;;;;;;;5118902;28;20233;-88
2021/12/29 00:50:30;;;;;;;17.90;6.97;;;;;;;;;;5118451;28;20227;-87
2021/12/29 00:52:57;;;;;;;13.37;6.70;;;;;;;;;;5113981;28;20280;-87
2021/12/29 00:55:26;;;;;;;14.83;6.70;;;;;;;;;;5113544;28;20193;-87
2021/12/29 00:57:53;;;;;;;14.60;6.40;;;;;;;;;;5113585;28;20233;-86
2021/12/29 01:00:22;;;;;;;15.27;6.50;;;;;;;;;;5112556;28;20235;-87
2021/12/29 01:02:49;;;;;;;15.60;5.67;;;;;;;;;;5112541;28;20198;-87
2021/12/29 01:05:18;;;;;;;14.07;5.83;;;;;;;;;;5112449;28;20221;-87
2021/12/29 01:07:45;;;;;;;16.67;5.60;;;;;;;;;;5112116;28;20296;-87
2021/12/29 01:10:14;;;;;;;14.47;5.43;;;;;;;;;;5113139;28;20276;-87
2021/12/29 01:12:51;;;;;;;14.40;4.90;;;;;;;;;;5112680;28;20669;-87
2021/12/29 01:15:24;;;;;;;13.80;5.13;;;;;;;;;;5113600;28;20726;-87
2021/12/29 01:17:52;;;;;;;14.10;4.73;;;;;;;;;;5114586;28;20206;-87
2021/12/29 01:20:20;;;;;;;14.53;4.33;;;;;;;;;;5119393;28;20186;-87
2021/12/29 01:22:47;;;;;;;11.63;4.20;;;;;;;;;;5112600;28;20205;-87
2021/12/29 01:25:14;;;;;;;12.57;3.73;;;;;;;;;;5112610;28;20232;-87
2021/12/29 01:27:43;;;;;;;14.97;4.10;;;;;;;;;;5112775;28;20249;-87
2021/12/29 01:30:10;;;;;;;13.73;4.00;;;;;;;;;;5112773;28;20201;-87
2021/12/29 01:32:38;;;;;;;15.50;4.00;;;;;;;;;;5112331;28;20198;-88
2021/12/29 01:35:06;;;;;;;11.67;3.27;;;;;;;;;;5110680;28;20629;-88
2021/12/29 01:37:33;;;;;;;13.03;3.03;;;;;;;;;;5112051;28;20743;-88
2021/12/29 01:40:00;;;;;;;12.77;3.20;;;;;;;;;;5112538;28;20273;-88
2021/12/29 01:42:28;;;;;;;15.67;3.10;;;;;;;;;;5111270;28;20198;-87
2021/12/29 01:44:58;;;;;;;13.63;3.03;;;;;;;;;;5105761;28;20201;-87
2021/12/29 01:47:26;;;;;;;14.40;3.07;;;;;;;;;;5111416;28;20644;-88
2021/12/29 01:49:53;;;;;;;18.40;3.10;;;;;;;;;;5111838;28;20280;-87
2021/12/29 01:52:24;;;;;;;17.10;2.70;;;;;;;;;;5119592;28;20221;-87
2021/12/29 01:54:52;;;;;;;15.77;2.70;;;;;;;;;;5113172;28;20201;-88
2021/12/29 01:57:19;;;;;;;15.60;2.97;;;;;;;;;;5111756;28;20248;-87
2021/12/29 01:59:47;;;;;;;11.17;2.20;;;;;;;;;;5110733;28;20201;-88
2021/12/29 02:02:16;;;;;;;12.13;2.77;;;;;;;;;;5111982;28;20293;-88
2021/12/29 02:04:44;;;;;;;10.83;2.63;;;;;;;;;;5112046;28;20208;-87
2021/12/29 02:07:11;;;;;;;11.00;3.00;;;;;;;;;;5111653;28;20296;-87
2021/12/29 02:09:38;;;;;;;10.10;2.80;;;;;;;;;;5111681;28;20296;-88
2021/12/29 02:12:06;;;;;;;16.47;2.57;;;;;;;;;;5111382;28;20238;-87
2021/12/29 02:14:34;;;;;;;13.20;2.50;;;;;;;;;;5111545;28;20277;-86
2021/12/29 02:17:01;;;;;;;8.50;2.60;;;;;;;;;;5110620;28;20305;-87
2021/12/29 02:19:30;;;;;;;12.03;2.60;;;;;;;;;;5106686;28;20562;-87
2021/12/29 02:22:06;;;;;;;10.73;2.23;;;;;;;;;;5111332;28;20277;-87
2021/12/29 02:24:40;;;;;;;8.40;1.83;;;;;;;;;;5118532;28;20265;-88
2021/12/29 02:27:07;;;;;;;10.07;1.87;;;;;;;;;;5115103;28;20331;-87
2021/12/29 02:29:35;;;;;;;5.97;1.30;;;;;;;;;;5111815;28;21070;-87
2021/12/29 02:32:03;;;;;;;6.20;1.50;;;;;;;;;;5110158;28;20701;-88
2021/12/29 02:34:30;;;;;;;3.87;1.23;;;;;;;;;;5104072;28;20238;-88
2021/12/29 02:37:01;;;;;;;3.60;1.00;;;;;;;;;;5101834;28;20221;-88
2021/12/29 02:39:30;;;;;;;3.57;1.23;;;;;;;;;;5111636;28;20226;-87
2021/12/29 02:41:58;;;;;;;2.87;0.80;;;;;;;;;;5112243;28;20197;-88
2021/12/29 02:44:28;;;;;;;3.50;0.90;;;;;;;;;;5110716;28;20190;-87
2021/12/29 02:46:57;;;;;;;4.90;1.23;;;;;;;;;;5105598;28;20199;-88
2021/12/29 02:49:26;;;;;;;5.33;1.10;;;;;;;;;;5108020;28;20197;-88
2021/12/29 02:51:53;;;;;;;1.80;0.67;;;;;;;;;;5112204;28;20190;-88
2021/12/29 02:54:23;;;;;;;2.63;0.73;;;;;;;;;;5111641;28;20275;-87
2021/12/29 02:56:54;;;;;;;4.13;0.83;;;;;;;;;;5094681;28;20222;-87
2021/12/29 02:59:21;;;;;;;3.40;0.87;;;;;;;;;;5114921;28;20266;-88
2021/12/29 03:01:48;;;;;;;3.97;0.60;;;;;;;;;;5111553;28;20736;-88
2021/12/29 03:04:16;;;;;;;2.87;0.90;;;;;;;;;;5111696;28;20280;-88
2021/12/29 03:06:43;;;;;;;3.67;0.83;;;;;;;;;;5111040;28;20225;-88
2021/12/29 03:09:12;;;;;;;1.57;0.50;;;;;;;;;;5111125;28;20253;-88
2021/12/29 03:11:41;;;;;;;1.70;0.57;;;;;;;;;;5110675;28;20198;-88
2021/12/29 03:14:08;;;;;;;2.87;0.70;;;;;;;;;;5111546;28;20221;-87
2021/12/29 03:16:36;;;;;;;1.93;0.70;;;;;;;;;;5111111;28;20206;-88
2021/12/29 03:19:03;;;;;;;2.33;0.50;;;;;;;;;;5111555;28;20280;-88
2021/12/29 03:21:31;;;;;;;2.53;0.70;;;;;;;;;;5111141;28;20744;-87
2021/12/29 03:23:58;;;;;;;2.60;0.73;;;;;;;;;;5111467;28;20634;-87
2021/12/29 03:26:26;;;;;;;4.47;0.57;;;;;;;;;;5111623;28;20221;-87
2021/12/29 03:28:57;;;;;;;1.57;0.50;;;;;;;;;;5114770;28;20228;-87
2021/12/29 03:31:24;;;;;;;1.33;0.60;;;;;;;;;;5122610;28;20190;-86
2021/12/29 03:33:51;;;;;;;2.27;0.67;;;;;;;;;;5115616;28;20242;-87
2021/12/29 03:36:19;;;;;;;3.33;0.70;;;;;;;;;;5132980;27;20267;-87
2021/12/29 03:38:48;;;;;;;1.77;0.50;;;;;;;;;;5114463;27;20768;-87
2021/12/29 03:41:17;;;;;;;1.27;0.37;;;;;;;;;;5114800;28;20197;-87
2021/12/29 03:43:45;;;;;;;2.20;0.50;;;;;;;;;;5114366;28;20683;-87
2021/12/29 03:46:14;;;;;;;1.30;0.43;;;;;;;;;;5112898;28;20201;-87
2021/12/29 03:48:42;;;;;;;1.30;0.30;;;;;;;;;;5113436;28;20217;-87
2021/12/29 03:51:10;;;;;;;1.17;0.40;;;;;;;;;;5113972;28;20226;-88
2021/12/29 03:53:38;;;;;;;1.17;0.47;;;;;;;;;;5114686;28;20254;-87
2021/12/29 03:56:05;;;;;;;0.87;0.40;;;;;;;;;;5113610;28;20245;-88
2021/12/29 03:58:33;;;;;;;1.30;0.33;;;;;;;;;;5114347;28;20221;-87
2021/12/29 04:01:02;;;;;;;1.43;0.40;;;;;;;;;;5114320;28;20652;-87
2021/12/29 04:03:30;;;;;;;1.13;0.50;;;;;;;;;;5118494;28;20212;-87
2021/12/29 04:05:58;;;;;;;1.00;0.30;;;;;;;;;;5118881;28;20289;-87
2021/12/29 04:08:25;;;;;;;1.77;0.60;;;;;;;;;;5114238;28;20229;-87
2021/12/29 04:10:52;;;;;;;1.87;0.40;;;;;;;;;;5113919;28;20555;-87
2021/12/29 04:13:19;;;;;;;1.63;0.50;;;;;;;;;;5113604;28;20202;-87
2021/12/29 04:15:47;;;;;;;0.80;0.23;;;;;;;;;;5099636;28;20625;-87
2021/12/29 04:18:26;;;;;;;2.20;0.50;;;;;;;;;;5094272;28;20733;-87
2021/12/29 04:20:55;;;;;;;1.43;0.40;;;;;;;;;;5093731;28;20685;-85
2021/12/29 04:23:23;;;;;;;0.30;0.20;;;;;;;;;;5102780;28;20225;-87
2021/12/29 04:25:54;;;;;;;3.23;0.30;;;;;;;;;;5114200;28;20701;-87
2021/12/29 04:28:23;;;;;;;0.60;0.20;;;;;;;;;;5113096;28;21579;-86
2021/12/29 04:30:51;;;;;;;0.83;0.20;;;;;;;;;;5112448;28;20544;-87
2021/12/29 04:33:19;;;;;;;1.90;0.30;;;;;;;;;;5113939;27;20757;-86
2021/12/29 04:35:46;;;;;;;0.83;0.20;;;;;;;;;;5115519;28;20540;-87
2021/12/29 04:38:15;;;;;;;1.30;0.40;;;;;;;;;;5119621;28;20309;-87
2021/12/29 04:40:43;;;;;;;0.93;0.27;;;;;;;;;;5114201;28;20625;-86
2021/12/29 04:43:10;;;;;;;0.67;0.20;;;;;;;;;;5112529;28;20729;-87
2021/12/29 04:45:37;;;;;;;1.20;0.30;;;;;;;;;;5112998;28;20217;-87
2021/12/29 04:48:11;;;;;;;0.70;0.20;;;;;;;;;;5113344;28;20249;-87
2021/12/29 04:50:39;;;;;;;0.57;0.30;;;;;;;;;;5113589;28;20212;-86
2021/12/29 04:53:08;;;;;;;0.10;0.10;;;;;;;;;;5113253;28;20630;-86
2021/12/29 04:55:39;;;;;;;0.90;0.20;;;;;;;;;;5106052;28;20310;-87
2021/12/29 04:58:06;;;;;;;2.47;0.30;;;;;;;;;;5112999;28;20201;-86
2021/12/29 05:00:34;;;;;;;0.20;0.20;;;;;;;;;;5113003;28;20225;-87
2021/12/29 05:03:01;;;;;;;2.10;0.30;;;;;;;;;;5107067;28;20673;-87
2021/12/29 05:05:51;;;;;;;1.13;0.20;;;;;;;;;;5113153;28;20196;-87
2021/12/29 05:08:27;;;;;;;0.43;0.20;;;;;;;;;;5113546;28;20305;-86
2021/12/29 05:10:57;;;;;;;1.70;0.30;;;;;;;;;;5120531;28;20280;-85
2021/12/29 05:13:25;;;;;;;0.77;0.30;;;;;;;;;;5114457;28;20627;-87
2021/12/29 05:15:55;;;;;;;1.93;0.30;;;;;;;;;;5112814;28;20186;-86
2021/12/29 05:18:22;;;;;;;1.17;0.30;;;;;;;;;;5112944;28;20202;-87
2021/12/29 05:20:49;;;;;;;0.70;0.20;;;;;;;;;;5112585;28;20232;-87
2021/12/29 05:23:17;;;;;;;2.87;0.20;;;;;;;;;;5113098;28;20238;-87
2021/12/29 05:25:44;;;;;;;1.57;0.43;;;;;;;;;;5103810;28;20275;-87
2021/12/29 05:28:13;;;;;;;0.97;0.30;;;;;;;;;;5102136;28;20217;-87
2021/12/29 05:30:40;;;;;;;1.30;0.30;;;;;;;;;;5112755;28;20293;-87
2021/12/29 05:33:07;;;;;;;3.77;0.50;;;;;;;;;;5110561;28;20225;-87
2021/12/29 05:35:39;;;;;;;0.87;0.27;;;;;;;;;;5103947;27;20576;-87
2021/12/29 05:38:06;;;;;;;0.40;0.20;;;;;;;;;;5112534;28;20316;-87
2021/12/29 05:40:34;;;;;;;0.83;0.30;;;;;;;;;;5107560;28;20691;-87
2021/12/29 05:43:01;;;;;;;1.07;0.30;;;;;;;;;;5096909;28;20198;-87
2021/12/29 05:45:30;;;;;;;2.50;0.30;;;;;;;;;;5095166;28;20195;-87
2021/12/29 05:47:57;;;;;;;1.90;0.40;;;;;;;;;;5092076;28;20191;-87
2021/12/29 05:50:27;;;;;;;0.80;0.20;;;;;;;;;;5092076;28;20226;-87
2021/12/29 05:52:55;;;;;;;2.13;0.40;;;;;;;;;;5091713;28;20233;-87
2021/12/29 05:55:22;;;;;;;0.60;0.30;;;;;;;;;;5094184;28;20300;-88
2021/12/29 05:57:50;;;;;;;0.70;0.30;;;;;;;;;;5111873;28;20626;-87
2021/12/29 06:00:18;;;;;;;1.40;0.50;;;;;;;;;;5104085;28;20259;-88
2021/12/29 06:02:47;;;;;;;0.73;0.47;;;;;;;;;;5092558;28;20351;-87
2021/12/29 06:05:15;;;;;;;2.27;0.30;;;;;;;;;;5092093;28;20237;-87
2021/12/29 06:07:42;;;;;;;0.80;0.30;;;;;;;;;;5092388;28;20229;-88
2021/12/29 06:10:11;;;;;;;1.47;0.30;;;;;;;;;;5092252;28;20310;-88
2021/12/29 06:12:39;;;;;;;0.70;0.43;;;;;;;;;;5104543;28;20212;-88
2021/12/29 06:15:07;;;;;;;1.80;0.43;;;;;;;;;;5116368;28;20610;-89
2021/12/29 06:17:34;;;;;;;0.87;0.40;;;;;;;;;;5112235;28;20286;-87
2021/12/29 06:20:04;;;;;;;1.23;0.50;;;;;;;;;;5105846;28;20700;-86
2021/12/29 06:22:31;;;;;;;4.53;0.50;;;;;;;;;;5111815;28;20229;-86
2021/12/29 06:24:58;;;;;;;1.83;0.40;;;;;;;;;;5111354;28;20631;-86
2021/12/29 06:27:26;;;;;;;2.40;0.57;;;;;;;;;;5105799;28;20221;-86
2021/12/29 06:29:53;;;;;;;3.47;0.67;;;;;;;;;;5111522;28;20248;-85
2021/12/29 06:32:21;;;;;;;1.53;0.60;;;;;;;;;;5108694;28;20285;-85
2021/12/29 06:34:48;;;;;;;2.07;0.73;;;;;;;;;;5106483;28;20285;-85
2021/12/29 06:37:17;;;;;;;2.27;0.70;;;;;;;;;;5108101;28;20281;-85
2021/12/29 06:39:46;;;;;;;1.70;0.63;;;;;;;;;;5098440;28;20254;-86
2021/12/29 06:42:13;;;;;;;2.57;0.90;;;;;;;;;;5117378;28;20732;-85
2021/12/29 06:44:41;;;;;;;3.03;0.83;;;;;;;;;;5110134;28;20289;-84
2021/12/29 06:47:08;;;;;;;2.60;0.87;;;;;;;;;;5110956;28;20627;-85
2021/12/29 06:49:36;;;;;;;4.10;0.90;;;;;;;;;;5109788;28;20772;-84
2021/12/29 06:52:04;;;;;;;2.97;1.10;;;;;;;;;;5110448;28;20225;-84
2021/12/29 06:54:33;;;;;;;3.43;1.10;;;;;;;;;;5109100;28;21849;-84
2021/12/29 06:57:00;;;;;;;3.30;0.97;;;;;;;;;;5110576;28;20241;-84
2021/12/29 06:59:27;;;;;;;4.47;1.40;;;;;;;;;;5109017;28;20707;-86
2021/12/29 07:01:55;;;;;;;3.43;1.50;;;;;;;;;;5111271;28;20290;-85
2021/12/29 07:04:23;;;;;;;2.80;1.33;;;;;;;;;;5108024;28;20693;-85
2021/12/29 07:06:50;;;;;;;3.23;1.20;;;;;;;;;;5113995;28;20206;-85
2021/12/29 07:09:18;;;;;;;4.07;1.30;;;;;;;;;;5111480;28;20639;-85
2021/12/29 07:11:46;;;;;;;4.60;1.30;;;;;;;;;;5114123;28;20615;-85
2021/12/29 07:14:14;;;;;;;6.53;1.60;;;;;;;;;;5114664;27;20229;-85
2021/12/29 07:16:44;;;;;;;4.63;1.60;;;;;;;;;;5115753;28;20250;-86
2021/12/29 07:19:11;;;;;;;4.30;1.53;;;;;;;;;;5114505;28;20194;-87
2021/12/29 07:21:39;;;;;;;2.83;1.17;;;;;;;;;;5107239;28;20622;-87
2021/12/29 07:24:07;;;;;;;5.37;1.50;;;;;;;;;;5109324;28;20289;-87
2021/12/29 07:26:34;;;;;;;4.20;1.03;;;;;;;;;;5115569;28;20618;-87
2021/12/29 07:29:04;;;;;;;2.70;1.00;;;;;;;;;;5114770;27;20209;-87
2021/12/29 07:31:31;;;;;;;3.87;1.37;;;;;;;;;;5104828;28;20651;-87
2021/12/29 07:33:58;;;;;;;3.73;1.47;;;;;;;;;;5112463;28;20237;-86
2021/12/29 07:36:26;;;;;;;3.57;1.50;;;;;;;;;;5115108;28;20214;-87
2021/12/29 07:38:53;;;;;;;7.37;1.60;;;;;;;;;;5115882;27;20321;-87
2021/12/29 07:41:20;;;;;;;5.33;1.30;;;;;;;;;;5116353;28;20202;-87
2021/12/29 07:43:50;;;;;;;3.33;1.30;;;;;;;;;;5115462;28;20647;-87
2021/12/29 07:46:33;;;;;;;2.87;1.00;;;;;;;;;;5113867;28;20235;-86
2021/12/29 07:49:00;;;;;;;5.60;1.40;;;;;;;;;;5114011;28;20217;-85
2021/12/29 07:51:27;;;;;;;6.53;1.70;;;;;;;;;;5113534;28;20549;-86
2021/12/29 07:53:55;;;;;;;4.83;1.57;;;;;;;;;;5114149;28;20228;-86
2021/12/29 07:56:22;;;;;;;3.80;1.30;;;;;;;;;;5112335;28;20302;-86
2021/12/29 07:58:50;;;;;;;4.93;1.70;;;;;;;;;;5113589;28;20459;-86
2021/12/29 08:01:17;;;;;;;5.87;1.40;;;;;;;;;;5113642;28;20638;-86
2021/12/29 08:03:46;;;;;;;5.40;1.50;;;;;;;;;;5113125;28;20234;-85
2021/12/29 08:06:15;;;;;;;6.17;1.50;;;;;;;;;;5112612;28;20278;-86
2021/12/29 08:08:42;;;;;;;5.73;1.17;;;;;;;;;;5114317;28;20198;-85
2021/12/29 08:11:09;;;;;;;2.90;1.40;;;;;;;;;;5113202;28;20229;-85
2021/12/29 08:13:37;;;;;;;4.57;1.70;;;;;;;;;;5112750;28;20297;-85
2021/12/29 08:16:05;;;;;;;3.20;1.23;;;;;;;;;;5112883;28;20700;-85
2021/12/29 08:18:32;;;;;;;5.30;1.30;;;;;;;;;;5112961;27;20198;-85
2021/12/29 08:21:00;;;;;;;4.83;1.63;;;;;;;;;;5110298;28;20292;-86
2021/12/29 08:23:28;;;;;;;3.77;1.27;;;;;;;;;;5112831;28;20280;-85
2021/12/29 08:25:55;;;;;;;2.87;1.27;;;;;;;;;;5113373;28;20583;-86
2021/12/29 08:28:23;;;;;;;4.20;1.40;;;;;;;;;;5112470;28;20307;-85
2021/12/29 08:30:50;;;;;;;4.03;1.20;;;;;;;;;;5112771;28;20217;-85
2021/12/29 08:33:17;;;;;;;3.80;1.30;;;;;;;;;;5112586;28;20934;-85
2021/12/29 08:35:45;;;;;;;4.17;1.00;;;;;;;;;;5112447;28;20262;-84
2021/12/29 08:38:14;;;;;;;6.03;1.03;;;;;;;;;;5112803;28;20256;-84
2021/12/29 08:40:41;;;;;;;3.77;1.23;;;;;;;;;;5113252;28;20623;-85
2021/12/29 08:43:08;;;;;;;4.57;1.17;;;;;;;;;;5112947;28;20190;-85
2021/12/29 08:45:37;;;;;;;4.07;1.40;;;;;;;;;;5109621;28;20626;-85
2021/12/29 08:48:05;;;;;;;2.67;1.00;;;;;;;;;;5112436;28;20193;-85
2021/12/29 08:50:33;;;;;;;1.97;0.90;;;;;;;;;;5112718;28;20249;-84
2021/12/29 08:53:02;;;;;;;2.20;0.90;;;;;;;;;;5111503;28;20271;-85
2021/12/29 08:55:31;;;;;;;4.40;1.10;;;;;;;;;;5112232;28;20645;-85
2021/12/29 08:57:58;;;;;;;2.10;0.80;;;;;;;;;;5111744;28;20229;-85
2021/12/29 09:00:25;;;;;;;2.53;0.70;;;;;;;;;;5112820;28;20201;-86
2021/12/29 09:02:52;;;;;;;2.23;0.70;;;;;;;;;;5113588;28;20189;-86
2021/12/29 09:05:20;;;;;;;2.90;0.70;;;;;;;;;;5112482;28;20237;-86
2021/12/29 09:07:48;;;;;;;1.60;0.57;;;;;;;;;;5113373;28;20193;-90
2021/12/29 09:10:17;;;;;;;1.70;0.63;;;;;;;;;;5112906;28;20245;-86
2021/12/29 09:12:48;;;;;;;1.87;0.60;;;;;;;;;;5113402;28;20269;-87
2021/12/29 09:15:15;;;;;;;2.47;0.90;;;;;;;;;;5112034;28;20194;-85
2021/12/29 09:17:43;;;;;;;2.93;0.67;;;;;;;;;;5109672;28;20289;-85
2021/12/29 09:20:15;;;;;;;1.60;0.57;;;;;;;;;;5112001;28;20294;-85
2021/12/29 09:22:42;;;;;;;0.90;0.60;;;;;;;;;;5112152;28;20285;-85
2021/12/29 09:25:10;;;;;;;1.37;0.70;;;;;;;;;;5110702;28;20229;-85
2021/12/29 09:27:37;;;;;;;2.57;0.90;;;;;;;;;;5110676;28;20297;-83
2021/12/29 09:30:06;;;;;;;3.20;0.73;;;;;;;;;;5104185;28;20218;-84
2021/12/29 09:32:34;;;;;;;1.37;0.63;;;;;;;;;;5111148;28;20707;-84
2021/12/29 09:35:01;;;;;;;2.10;0.77;;;;;;;;;;5107916;28;20282;-85
2021/12/29 09:37:30;;;;;;;3.90;0.90;;;;;;;;;;5110119;28;20639;-85
2021/12/29 09:39:57;;;;;;;2.40;0.60;;;;;;;;;;5107567;28;20658;-86
2021/12/29 09:42:24;;;;;;;0.97;0.63;;;;;;;;;;5109545;28;20284;-86
2021/12/29 09:44:52;;;;;;;1.77;0.60;;;;;;;;;;5111035;28;20234;-87
2021/12/29 09:47:22;;;;;;;2.27;0.70;;;;;;;;;;5110943;28;20915;-86
2021/12/29 09:49:49;;;;;;;5.03;0.60;;;;;;;;;;5110519;28;20253;-86
2021/12/29 09:52:16;;;;;;;1.40;0.70;;;;;;;;;;5111950;28;20328;-86
2021/12/29 09:54:43;;;;;;;1.87;0.77;;;;;;;;;;5111794;28;20276;-86
2021/12/29 09:57:11;;;;;;;2.90;0.80;;;;;;;;;;5111554;28;20308;-86
2021/12/29 09:59:38;;;;;;;2.93;0.97;;;;;;;;;;5111674;28;20276;-86
2021/12/29 10:02:06;;;;;;;3.03;1.00;;;;;;;;;;5111264;28;20244;-85
2021/12/29 10:04:36;;;;;;;1.80;0.93;;;;;;;;;;5105270;28;20189;-86
2021/12/29 10:07:11;;;;;;;2.63;1.00;;;;;;;;;;5110218;28;20284;-86
2021/12/29 10:09:38;;;;;;;3.07;1.10;;;;;;;;;;5107863;28;20300;-87
2021/12/29 10:12:08;;;;;;;2.40;0.90;;;;;;;;;;5109146;28;20619;-86
2021/12/29 10:14:35;;;;;;;3.70;1.17;;;;;;;;;;5110993;28;20619;-86
2021/12/29 10:17:03;;;;;;;3.30;1.30;;;;;;;;;;5109571;28;20190;-86
2021/12/29 10:19:36;;;;;;;3.10;1.00;;;;;;;;;;5105298;28;20212;-86
2021/12/29 10:22:05;;;;;;;2.63;0.90;;;;;;;;;;5111092;28;20193;-85
2021/12/29 10:24:33;;;;;;;2.20;0.90;;;;;;;;;;5109780;28;20313;-86
2021/12/29 10:27:00;;;;;;;2.03;1.10;;;;;;;;;;5108506;28;20224;-86
2021/12/29 10:29:29;;;;;;;2.10;1.00;;;;;;;;;;5108802;28;20202;-86
2021/12/29 10:31:58;;;;;;;4.13;1.13;;;;;;;;;;5110445;28;20194;-86
2021/12/29 10:34:29;;;;;;;1.47;0.93;;;;;;;;;;5111428;28;20289;-86
2021/12/29 10:36:57;;;;;;;2.93;0.97;;;;;;;;;;5111856;28;20193;-86
2021/12/29 10:39:27;;;;;;;1.93;0.60;;;;;;;;;;5115529;28;20769;-86
2021/12/29 10:41:56;;;;;;;2.60;0.93;;;;;;;;;;5113717;28;20194;-87
2021/12/29 10:44:29;;;;;;;2.93;1.40;;;;;;;;;;5114154;28;20764;-87
2021/12/29 10:46:56;;;;;;;2.03;0.87;;;;;;;;;;5114925;28;20255;-86
2021/12/29 10:49:25;;;;;;;3.27;0.90;;;;;;;;;;5114890;28;20197;-85
2021/12/29 10:51:52;;;;;;;4.23;1.40;;;;;;;;;;5116243;28;20193;-85
2021/12/29 10:54:23;;;;;;;2.13;1.00;;;;;;;;;;5114189;28;20280;-87
2021/12/29 10:57:00;;;;;;;3.50;1.23;;;;;;;;;;5116024;28;20577;-86
2021/12/29 10:59:30;;;;;;;1.70;1.10;;;;;;;;;;5112255;28;20220;-87
2021/12/29 11:01:57;;;;;;;2.53;1.00;;;;;;;;;;5114978;28;20293;-87
2021/12/29 11:04:25;;;;;;;2.30;1.50;;;;;;;;;;5113820;28;20213;-86
2021/12/29 11:06:56;;;;;;;4.10;2.40;;;;;;;;;;5109867;28;20221;-86
2021/12/29 11:09:24;;;;;;;2.57;0.90;;;;;;;;;;5115990;28;20194;-86
2021/12/29 11:11:52;;;;;;;3.47;1.10;;;;;;;;;;5115342;28;20193;-86
2021/12/29 11:14:23;;;;;;;2.60;1.00;;;;;;;;;;5111774;28;20236;-86
2021/12/29 11:17:00;;;;;;;3.70;1.30;;;;;;;;;;5114737;27;20557;-86
2021/12/29 11:19:28;;;;;;;2.70;1.10;;;;;;;;;;5116607;27;20190;-86
2021/12/29 11:22:05;;;;;;;2.80;1.20;;;;;;;;;;5109138;27;20194;-87
2021/12/29 11:24:32;;;;;;;3.83;1.30;;;;;;;;;;5116299;27;20237;-87
2021/12/29 11:27:00;;;;;;;2.60;1.20;;;;;;;;;;5107127;28;20201;-86
2021/12/29 11:29:29;;;;;;;2.53;1.20;;;;;;;;;;5112949;28;20218;-86
2021/12/29 11:31:59;;;;;;;5.10;1.43;;;;;;;;;;5114750;28;20201;-80
2021/12/29 11:34:27;;;;;;;3.57;1.30;;;;;;;;;;5110059;28;20773;-81
2021/12/29 11:37:02;;;;;;;5.03;1.57;;;;;;;;;;5111010;27;20579;-81
2021/12/29 11:39:29;;;;;;;2.43;1.30;;;;;;;;;;5111640;28;20315;-82
2021/12/29 11:41:56;;;;;;;2.70;1.00;;;;;;;;;;5112918;27;21092;-82
2021/12/29 11:44:23;;;;;;;3.10;1.60;;;;;;;;;;5110975;27;20236;-79
2021/12/29 11:46:52;;;;;;;4.47;1.40;;;;;;;;;;5113506;28;20198;-79
2021/12/29 11:49:19;;;;;;;3.63;1.30;;;;;;;;;;5112777;28;20198;-80
2021/12/29 11:51:53;;;;;;;4.33;1.70;;;;;;;;;;5105900;28;20666;-80
2021/12/29 11:54:23;;;;;;;4.43;1.23;;;;;;;;;;5114172;28;20229;-80
2021/12/29 11:56:50;;;;;;;2.57;1.00;;;;;;;;;;5112858;28;20257;-80
2021/12/29 11:59:17;;;;;;;4.50;1.00;;;;;;;;;;5112651;28;20293;-80
2021/12/29 12:01:53;;;;;;;3.53;1.17;;;;;;;;;;5111254;28;20273;-80
2021/12/29 12:04:22;;;;;;;3.77;1.10;;;;;;;;;;5110658;28;20198;-80
2021/12/29 12:06:49;;;;;;;4.93;0.77;;;;;;;;;;5112735;28;20204;-80
2021/12/29 12:09:17;;;;;;;2.80;0.83;;;;;;;;;;5112847;28;20194;-80
2021/12/29 12:11:46;;;;;;;2.43;1.00;;;;;;;;;;5112351;28;20260;-80
2021/12/29 12:14:21;;;;;;;2.57;1.00;;;;;;;;;;5113015;28;20206;-79
2021/12/29 12:19:35;;;;;;;2.90;0.70;;;;;;;;;;5113677;28;20212;-81
2021/12/29 12:22:05;;;;;;;3.70;0.90;;;;;;;;;;5116860;28;20241;-80
2021/12/29 12:24:33;;;;;;;2.13;0.60;;;;;;;;;;5115018;28;20208;-80
2021/12/29 12:27:02;;;;;;;6.00;0.97;;;;;;;;;;5112234;28;20376;-80
2021/12/29 12:29:31;;;;;;;2.07;1.00;;;;;;;;;;5110603;28;20210;-80
2021/12/29 12:32:07;;;;;;;4.80;1.00;;;;;;;;;;5108397;28;20304;-80
2021/12/29 12:34:36;;;;;;;3.87;1.10;;;;;;;;;;5104689;27;20236;-81
2021/12/29 12:37:14;;;;;;;1.97;0.90;;;;;;;;;;5112138;28;20672;-80
2021/12/29 12:39:41;;;;;;;3.87;1.30;;;;;;;;;;5105665;28;20677;-79
2021/12/29 12:42:17;;;;;;;3.73;1.50;;;;;;;;;;5111758;28;20221;-80
2021/12/29 12:44:44;;;;;;;5.37;1.53;;;;;;;;;;5111242;28;20224;-81
2021/12/29 12:47:12;;;;;;;2.63;0.90;;;;;;;;;;5110025;28;20280;-81
2021/12/29 12:49:46;;;;;;;2.77;0.90;;;;;;;;;;5111525;28;20720;-82
2021/12/29 12:52:14;;;;;;;2.00;0.80;;;;;;;;;;5110027;28;20304;-81
2021/12/29 12:54:45;;;;;;;3.10;0.83;;;;;;;;;;5111490;28;20194;-81
2021/12/29 12:57:13;;;;;;;3.03;1.00;;;;;;;;;;5110005;28;20241;-81
2021/12/29 12:59:41;;;;;;;2.63;0.90;;;;;;;;;;5105606;28;20226;-80
2021/12/29 13:02:14;;;;;;;3.13;0.93;;;;;;;;;;5110018;28;20280;-81
2021/12/29 13:05:01;;;;;;;3.13;1.17;;;;;;;;;;5112060;28;20765;-81
2021/12/29 13:07:29;;;;;;;2.70;0.83;;;;;;;;;;5106661;28;20204;-81
2021/12/29 13:09:56;;;;;;;4.13;1.00;;;;;;;;;;5110333;28;20194;-81
2021/12/29 13:12:28;;;;;;;3.37;1.17;;;;;;;;;;5111078;27;20236;-80
2021/12/29 13:15:02;;;;;;;2.67;0.93;;;;;;;;;;5109219;28;20745;-80
2021/12/29 13:17:30;;;;;;;4.47;1.80;;;;;;;;;;5109613;28;20201;-80
2021/12/29 13:19:58;;;;;;;5.13;2.57;;;;;;;;;;5108611;28;20229;-80
2021/12/29 13:22:26;;;;;;;4.53;2.27;;;;;;;;;;5107130;28;20626;-82
2021/12/29 13:24:54;;;;;;;3.20;1.60;;;;;;;;;;5111095;28;20281;-82
2021/12/29 13:27:22;;;;;;;3.27;1.20;;;;;;;;;;5111206;28;20661;-82
2021/12/29 13:29:58;;;;;;;5.97;1.53;;;;;;;;;;5112054;28;20285;-81
2021/12/29 13:32:26;;;;;;;3.70;1.53;;;;;;;;;;5111548;28;20240;-81
2021/12/29 13:35:02;;;;;;;2.23;1.10;;;;;;;;;;5111361;28;20204;-81
2021/12/29 13:37:30;;;;;;;3.23;1.40;;;;;;;;;;5110663;28;20201;-81
2021/12/29 13:39:57;;;;;;;2.00;1.20;;;;;;;;;;5110268;28;20190;-82
2021/12/29 13:42:25;;;;;;;2.90;1.20;;;;;;;;;;5112319;28;20269;-81
2021/12/29 13:44:54;;;;;;;2.10;0.90;;;;;;;;;;5110569;28;20202;-83
2021/12/29 13:47:22;;;;;;;4.40;2.27;;;;;;;;;;5108085;28;20199;-80
2021/12/29 13:49:49;;;;;;;3.40;0.90;;;;;;;;;;5107744;28;20285;-83
2021/12/29 13:52:18;;;;;;;2.27;0.77;;;;;;;;;;5111410;28;20217;-84
2021/12/29 13:54:46;;;;;;;2.93;0.83;;;;;;;;;;5110117;28;20636;-81
2021/12/29 13:57:13;;;;;;;2.13;0.77;;;;;;;;;;5109104;28;20213;-81
2021/12/29 13:59:40;;;;;;;2.90;1.20;;;;;;;;;;5110804;28;20293;-80
2021/12/29 14:02:08;;;;;;;2.23;1.20;;;;;;;;;;5110246;28;20277;-81
2021/12/29 14:04:36;;;;;;;1.73;1.07;;;;;;;;;;5106948;28;20232;-80
2021/12/29 14:07:05;;;;;;;3.10;1.70;;;;;;;;;;5109447;28;20197;-81
2021/12/29 14:09:34;;;;;;;1.73;1.07;;;;;;;;;;5108959;28;20303;-81
2021/12/29 14:12:12;;;;;;;1.70;0.67;;;;;;;;;;5108314;28;20312;-80
2021/12/29 14:14:40;;;;;;;1.67;0.80;;;;;;;;;;5101846;28;20769;-80
2021/12/29 14:17:13;;;;;;;2.17;0.77;;;;;;;;;;5110212;28;20232;-80
2021/12/29 14:19:44;;;;;;;3.57;1.27;;;;;;;;;;5110693;28;20202;-81
2021/12/29 14:22:21;;;;;;;3.73;1.73;;;;;;;;;;5109990;28;20741;-80
2021/12/29 14:24:49;;;;;;;2.70;1.07;;;;;;;;;;5108766;28;20236;-80
2021/12/29 14:27:23;;;;;;;2.03;1.30;;;;;;;;;;5111066;28;20580;-80
2021/12/29 14:29:50;;;;;;;2.27;0.87;;;;;;;;;;5111259;28;20284;-79
2021/12/29 14:32:18;;;;;;;2.30;1.50;;;;;;;;;;5109477;28;20590;-79
2021/12/29 14:34:46;;;;;;;2.03;1.20;;;;;;;;;;5110961;28;20204;-80
2021/12/29 14:37:15;;;;;;;1.67;1.40;;;;;;;;;;5109685;28;20285;-80
2021/12/29 14:39:42;;;;;;;1.50;0.97;;;;;;;;;;5110555;28;20313;-79
2021/12/29 14:42:12;;;;;;;2.97;1.30;;;;;;;;;;5104461;28;20194;-80
2021/12/29 14:44:41;;;;;;;3.23;1.13;;;;;;;;;;5108228;28;20206;-80
2021/12/29 14:47:08;;;;;;;3.00;1.00;;;;;;;;;;5110837;28;20208;-79
2021/12/29 14:49:37;;;;;;;3.87;1.00;;;;;;;;;;5107406;28;20211;-80
2021/12/29 14:52:06;;;;;;;2.50;1.30;;;;;;;;;;5106006;28;20245;-79